Time;durP1;ratioP1;P1;durP2;ratioP2;P2;SDS_P1;SDS_P2;PMS_P1;PMS_P2;Temp;Humidity;BMP_temperature;BMP_pressure;BME280_temperature;BME280_humidity;BME280_pressure;Samples;Min_cycle;Max_cycle;Signal;HPM_P1;HPM_P2
2023/05/01 00:02:11;;;;;;;18.52;11.20;;;;;;;11.22;76.53;101639.34;5031466;28;20034;-46
2023/05/01 00:04:36;;;;;;;18.45;10.52;;;;;;;11.25;76.77;101635.16;5031470;28;20029;-48
2023/05/01 00:07:02;;;;;;;17.65;10.57;;;;;;;11.26;76.13;101631.25;5031673;28;20064;-48
2023/05/01 00:09:27;;;;;;;19.35;11.70;;;;;;;11.24;76.64;101626.03;5031480;28;20537;-48
2023/05/01 00:11:53;;;;;;;16.98;10.40;;;;;;;11.27;76.09;101629.34;5031355;28;20545;-49
2023/05/01 00:14:18;;;;;;;18.23;11.10;;;;;;;11.22;76.69;101617.19;5031415;28;20041;-46
2023/05/01 00:16:45;;;;;;;19.40;11.32;;;;;;;11.20;76.27;101619.41;5029885;28;20132;-47
2023/05/01 00:19:11;;;;;;;17.35;10.45;;;;;;;11.21;75.66;101607.22;5031218;28;20462;-46
2023/05/01 00:21:36;;;;;;;17.90;11.00;;;;;;;11.21;76.01;101607.22;5031477;28;20031;-45
2023/05/01 00:24:02;;;;;;;18.02;10.80;;;;;;;11.21;76.14;101600.88;5029926;28;20028;-45
2023/05/01 00:26:30;;;;;;;19.40;11.00;;;;;;;11.16;75.80;101607.28;5031031;28;20453;-48
2023/05/01 00:28:56;;;;;;;19.83;10.73;;;;;;;11.16;76.48;101598.13;5029914;28;20385;-45
2023/05/01 00:31:23;;;;;;;20.85;10.85;;;;;;;11.13;76.59;101596.78;5031107;28;20029;-48
2023/05/01 00:33:48;;;;;;;18.08;10.80;;;;;;;11.16;75.89;101600.91;5031113;28;20029;-44
2023/05/01 00:36:14;;;;;;;18.88;11.50;;;;;;;11.16;76.45;101587.03;5031222;28;20528;-45
2023/05/01 00:38:39;;;;;;;18.55;11.07;;;;;;;11.12;76.40;101594.31;5031007;28;20021;-47
2023/05/01 00:41:04;;;;;;;17.30;10.75;;;;;;;11.11;76.51;101590.69;5030982;28;20037;-46
2023/05/01 00:43:30;;;;;;;19.75;11.30;;;;;;;11.13;76.50;101584.88;5031046;28;20021;-45
2023/05/01 00:45:55;;;;;;;17.52;10.25;;;;;;;11.12;76.22;101584.03;5030910;28;20068;-45
2023/05/01 00:48:20;;;;;;;18.77;11.80;;;;;;;11.12;75.82;101577.69;5031061;28;20481;-45
2023/05/01 00:50:47;;;;;;;18.50;11.35;;;;;;;11.17;76.27;101577.63;5031056;28;20394;-46
2023/05/01 00:53:13;;;;;;;19.42;10.85;;;;;;;11.15;76.29;101579.84;5030823;28;20575;-45
2023/05/01 00:55:41;;;;;;;17.85;10.90;;;;;;;11.13;76.30;101574.63;5033803;28;20109;-45
2023/05/01 00:58:06;;;;;;;19.98;11.20;;;;;;;11.12;76.11;101572.16;5034897;28;20033;-45
2023/05/01 01:00:32;;;;;;;19.88;11.48;;;;;;;11.11;76.32;101573.25;5034747;28;20042;-46
2023/05/01 01:02:57;;;;;;;17.23;11.30;;;;;;;11.10;76.90;101564.13;5034800;28;20033;-45
2023/05/01 01:05:26;;;;;;;19.48;10.63;;;;;;;11.08;77.07;101558.88;5034791;28;20144;-45
2023/05/01 01:08:04;;;;;;;18.40;10.73;;;;;;;11.10;76.20;101557.75;5034638;28;20037;-46
2023/05/01 01:10:39;;;;;;;18.45;10.75;;;;;;;11.07;76.66;101556.41;5034566;28;20029;-45
2023/05/01 01:13:18;;;;;;;17.48;10.63;;;;;;;11.04;76.59;101555.06;5034290;28;20030;-46
2023/05/01 01:15:52;;;;;;;18.23;10.55;;;;;;;11.00;76.88;101553.16;5034622;28;20064;-48
2023/05/01 01:18:40;;;;;;;20.58;11.38;;;;;;;11.04;76.73;101551.44;5033054;28;20084;-46
2023/05/01 01:21:20;;;;;;;17.48;10.85;;;;;;;11.02;76.67;101546.22;5034476;28;20381;-44
2023/05/01 01:24:04;;;;;;;18.38;11.40;;;;;;;11.02;76.93;101551.75;5034256;28;20030;-45
2023/05/01 01:26:49;;;;;;;20.35;11.13;;;;;;;11.00;76.40;101531.03;5034067;28;20045;-46
2023/05/01 01:29:56;;;;;;;19.33;11.20;;;;;;;11.01;76.68;101535.41;5034268;28;20040;-45
2023/05/01 01:32:49;;;;;;;20.30;11.52;;;;;;;10.95;76.77;101533.81;5031698;28;20444;-45
2023/05/01 01:35:18;;;;;;;20.17;11.50;;;;;;;10.87;77.14;101527.81;5031773;28;20048;-45
2023/05/01 01:38:02;;;;;;;18.50;11.18;;;;;;;10.89;77.29;101530.28;5033379;28;20568;-46
2023/05/01 01:40:52;;;;;;;20.02;11.13;;;;;;;10.86;77.29;101522.56;5034105;28;20034;-48
2023/05/01 01:43:20;;;;;;;19.48;11.70;;;;;;;10.80;77.66;101518.19;5032566;28;20397;-44
2023/05/01 01:45:48;;;;;;;18.17;10.55;;;;;;;10.77;77.64;101514.06;5034008;28;20100;-44
2023/05/01 01:48:16;;;;;;;17.30;11.10;;;;;;;10.71;77.82;101504.97;5033790;28;20021;-46
2023/05/01 01:50:44;;;;;;;18.40;11.20;;;;;;;10.74;77.91;101512.72;5033616;28;20034;-45
2023/05/01 01:53:13;;;;;;;19.20;11.18;;;;;;;10.69;78.44;101506.38;5033677;28;20029;-47
2023/05/01 01:55:42;;;;;;;19.73;10.82;;;;;;;10.65;78.60;101497.00;5032282;28;20051;-50
2023/05/01 01:58:09;;;;;;;18.05;11.10;;;;;;;10.64;78.28;101498.13;5033686;28;20481;-49
2023/05/01 02:00:35;;;;;;;18.02;11.05;;;;;;;10.61;78.30;101491.22;5033642;28;20112;-47
2023/05/01 02:03:02;;;;;;;19.17;10.50;;;;;;;10.55;78.37;101484.09;5033554;28;20026;-44
2023/05/01 02:05:30;;;;;;;19.13;10.65;;;;;;;10.57;78.73;101491.00;5033397;28;20029;-44
2023/05/01 02:07:56;;;;;;;17.67;10.43;;;;;;;10.63;78.12;101482.66;5032830;28;20041;-44
2023/05/01 02:10:23;;;;;;;18.63;10.82;;;;;;;10.61;78.45;101482.94;5033357;28;20029;-45
2023/05/01 02:12:51;;;;;;;18.80;11.07;;;;;;;10.57;78.44;101484.66;5033248;28;20042;-46
2023/05/01 02:15:18;;;;;;;18.88;11.23;;;;;;;10.53;78.59;101475.25;5033246;28;20485;-48
2023/05/01 02:17:44;;;;;;;19.08;10.73;;;;;;;10.50;79.07;101473.06;5033150;28;20090;-45
2023/05/01 02:20:11;;;;;;;18.17;10.50;;;;;;;10.47;79.23;101476.44;5033181;28;20022;-46
2023/05/01 02:22:39;;;;;;;19.52;11.23;;;;;;;10.44;79.24;101469.53;5033169;28;20512;-49
2023/05/01 02:25:07;;;;;;;19.05;11.50;;;;;;;10.47;78.80;101462.59;5033517;28;20032;-49
2023/05/01 02:27:37;;;;;;;18.80;11.60;;;;;;;10.46;78.95;101475.59;5032936;28;20045;-47
2023/05/01 02:30:04;;;;;;;19.17;11.13;;;;;;;10.43;79.25;101465.13;5033109;28;20033;-46
2023/05/01 02:32:30;;;;;;;18.58;10.82;;;;;;;10.45;79.14;101465.63;5032826;28;20021;-49
2023/05/01 02:34:56;;;;;;;20.00;11.15;;;;;;;10.44;78.59;101466.75;5033068;28;20075;-49
2023/05/01 02:37:22;;;;;;;22.63;11.63;;;;;;;10.40;78.86;101458.22;5032975;28;20443;-46
2023/05/01 02:39:47;;;;;;;19.42;10.80;;;;;;;10.40;78.88;101460.16;5033054;28;20037;-47
2023/05/01 02:42:15;;;;;;;20.42;11.57;;;;;;;10.39;79.49;101462.09;5032804;28;20040;-47
2023/05/01 02:44:55;;;;;;;20.80;11.52;;;;;;;10.39;79.81;101455.75;5032719;28;20544;-46
2023/05/01 02:47:22;;;;;;;19.15;11.27;;;;;;;10.37;80.20;101450.50;5032753;28;20370;-46
2023/05/01 02:49:48;;;;;;;19.40;11.10;;;;;;;10.38;79.88;101446.63;5031486;28;20098;-48
2023/05/01 02:52:16;;;;;;;20.38;11.52;;;;;;;10.33;80.07;101446.63;5032696;28;20037;-47
2023/05/01 02:54:44;;;;;;;20.58;11.07;;;;;;;10.33;79.83;101441.09;5032680;28;20108;-50
2023/05/01 02:57:10;;;;;;;19.23;11.88;;;;;;;10.33;79.90;101441.09;5032541;28;20025;-46
2023/05/01 02:59:36;;;;;;;19.67;11.43;;;;;;;10.32;79.87;101431.16;5032654;28;20030;-49
2023/05/01 03:02:01;;;;;;;19.77;11.48;;;;;;;10.34;80.49;101425.34;5032641;28;20108;-46
2023/05/01 03:04:26;;;;;;;19.83;11.88;;;;;;;10.29;80.67;101426.22;5032438;28;20071;-45
2023/05/01 03:06:53;;;;;;;18.55;11.20;;;;;;;10.30;80.61;101430.59;5032392;28;20487;-46
2023/05/01 03:09:18;;;;;;;19.65;11.38;;;;;;;10.27;79.96;101425.69;5032379;28;20549;-45
2023/05/01 03:11:43;;;;;;;19.55;10.95;;;;;;;10.24;80.71;101420.72;5032135;28;20125;-46
2023/05/01 03:14:10;;;;;;;19.83;11.45;;;;;;;10.23;80.85;101419.06;5032313;28;20033;-46
2023/05/01 03:16:35;;;;;;;20.73;11.77;;;;;;;10.18;81.04;101413.59;5032553;28;20087;-45
2023/05/01 03:19:00;;;;;;;20.75;11.27;;;;;;;10.19;80.45;101418.00;5031185;28;20429;-46
2023/05/01 03:21:26;;;;;;;19.23;11.55;;;;;;;10.14;81.25;101407.81;5032149;28;20059;-49
2023/05/01 03:23:51;;;;;;;20.38;11.15;;;;;;;10.15;81.45;101412.25;5032097;28;20022;-46
2023/05/01 03:26:16;;;;;;;19.83;11.27;;;;;;;10.13;81.41;101406.97;5032319;28;20095;-45
2023/05/01 03:28:42;;;;;;;19.75;11.82;;;;;;;10.11;81.01;101400.91;5031991;28;20155;-47
2023/05/01 03:31:07;;;;;;;19.65;11.80;;;;;;;10.14;81.39;101402.28;5032145;28;20268;-46
2023/05/01 03:33:32;;;;;;;20.15;11.90;;;;;;;10.08;81.52;101400.66;5030742;28;20080;-45
2023/05/01 03:35:59;;;;;;;19.92;11.82;;;;;;;10.07;81.62;101394.31;5032077;28;20064;-48
2023/05/01 03:38:26;;;;;;;22.60;11.95;;;;;;;10.03;81.95;101389.66;5032304;28;20034;-47
2023/05/01 03:40:51;;;;;;;20.13;12.32;;;;;;;10.02;82.06;101397.13;5032091;28;20021;-50
2023/05/01 03:43:16;;;;;;;21.60;11.98;;;;;;;10.01;81.89;101392.72;5031991;28;20036;-49
2023/05/01 03:45:41;;;;;;;20.75;11.85;;;;;;;10.01;81.90;101394.66;5032097;28;20428;-46
2023/05/01 03:48:07;;;;;;;20.25;12.20;;;;;;;9.99;82.28;101387.47;5030501;28;20033;-45
2023/05/01 03:50:32;;;;;;;19.48;12.65;;;;;;;10.01;81.96;101386.34;5031771;28;20439;-46
2023/05/01 03:52:57;;;;;;;21.05;11.80;;;;;;;9.98;82.48;101382.25;5030483;28;20033;-47
2023/05/01 03:55:23;;;;;;;20.65;11.77;;;;;;;10.02;82.64;101380.53;5031895;28;20032;-45
2023/05/01 03:57:48;;;;;;;18.85;11.23;;;;;;;10.01;82.60;101384.44;5031701;28;20113;-45
2023/05/01 04:00:13;;;;;;;20.08;11.52;;;;;;;9.98;82.72;101379.47;5031731;28;20052;-48
2023/05/01 04:02:39;;;;;;;20.42;11.80;;;;;;;9.94;82.79;101384.75;5031667;28;20492;-45
2023/05/01 04:05:05;;;;;;;21.30;12.20;;;;;;;9.92;82.82;101381.44;5030137;28;20426;-44
2023/05/01 04:07:30;;;;;;;20.55;12.02;;;;;;;9.90;82.24;101377.34;5030078;28;20438;-45
2023/05/01 04:09:56;;;;;;;21.02;12.30;;;;;;;9.89;82.94;101375.69;5031377;28;20049;-46
2023/05/01 04:12:21;;;;;;;19.85;12.85;;;;;;;9.89;82.64;101370.16;5031261;28;20037;-48
2023/05/01 04:14:46;;;;;;;21.73;12.40;;;;;;;9.89;82.82;101370.16;5030032;28;20026;-44
2023/05/01 04:17:12;;;;;;;22.15;12.07;;;;;;;9.92;82.52;101373.16;5031390;28;20033;-47
2023/05/01 04:19:37;;;;;;;20.48;12.23;;;;;;;9.93;83.05;101373.97;5031359;28;20021;-49
2023/05/01 04:22:02;;;;;;;20.10;12.25;;;;;;;9.93;83.21;101373.97;5031286;28;20561;-48
2023/05/01 04:24:27;;;;;;;20.73;13.02;;;;;;;9.93;83.22;101372.06;5029827;28;20496;-47
2023/05/01 04:26:53;;;;;;;20.73;12.30;;;;;;;9.91;83.48;101365.97;5029326;28;20056;-45
2023/05/01 04:29:18;;;;;;;20.17;12.40;;;;;;;9.94;82.99;101362.66;5030790;28;20030;-44
2023/05/01 04:31:43;;;;;;;20.48;12.38;;;;;;;9.95;82.78;101366.22;5030974;28;20108;-45
2023/05/01 04:34:09;;;;;;;18.92;11.77;;;;;;;9.93;82.92;101369.28;5030981;28;20466;-46
2023/05/01 04:36:34;;;;;;;20.25;12.15;;;;;;;9.92;83.38;101364.06;5031116;28;20057;-46
2023/05/01 04:38:59;;;;;;;21.08;12.18;;;;;;;9.89;83.33;101359.91;5031202;28;20051;-46
2023/05/01 04:41:25;;;;;;;20.02;11.63;;;;;;;9.91;83.40;101365.16;5031003;28;20493;-46
2023/05/01 04:43:51;;;;;;;20.58;12.00;;;;;;;9.85;83.53;101361.63;5031201;28;20389;-47
2023/05/01 04:46:16;;;;;;;20.95;11.50;;;;;;;9.86;83.04;101365.19;5029726;28;20033;-45
2023/05/01 04:48:43;;;;;;;20.98;11.77;;;;;;;9.84;82.99;101366.31;5031033;28;20091;-46
2023/05/01 04:51:08;;;;;;;20.27;10.88;;;;;;;9.81;83.47;101363.28;5029575;28;20025;-46
2023/05/01 04:53:33;;;;;;;21.88;11.60;;;;;;;9.83;83.04;101364.66;5030895;28;20018;-45
2023/05/01 04:55:58;;;;;;;22.63;11.70;;;;;;;9.87;83.17;101377.91;5030987;28;20358;-46
2023/05/01 04:58:24;;;;;;;19.48;11.98;;;;;;;9.93;82.83;101377.56;5029859;28;20032;-45
2023/05/01 05:00:49;;;;;;;19.35;11.43;;;;;;;10.01;82.64;101383.59;5031082;28;20026;-46
2023/05/01 05:03:17;;;;;;;20.30;10.90;;;;;;;10.04;81.76;101381.06;5031131;28;20389;-47
2023/05/01 05:05:43;;;;;;;19.13;11.57;;;;;;;10.04;82.65;101378.31;5031071;28;20025;-45
2023/05/01 05:08:09;;;;;;;20.30;11.65;;;;;;;10.01;82.01;101387.19;5031040;28;20025;-45
2023/05/01 05:10:34;;;;;;;20.80;11.88;;;;;;;10.06;82.36;101389.09;5030835;28;20025;-47
2023/05/01 05:13:00;;;;;;;21.38;11.13;;;;;;;10.08;81.98;101384.06;5030731;28;20458;-47
2023/05/01 05:15:25;;;;;;;20.98;11.82;;;;;;;10.11;82.06;101380.75;5029353;28;20465;-48
2023/05/01 05:17:50;;;;;;;20.55;11.90;;;;;;;10.08;82.02;101376.63;5030847;28;20030;-45
2023/05/01 05:20:15;;;;;;;22.23;12.30;;;;;;;10.12;82.18;101379.63;5029401;28;20111;-46
2023/05/01 05:22:41;;;;;;;21.15;11.82;;;;;;;10.15;82.78;101377.09;5030779;28;20815;-47
2023/05/01 05:25:07;;;;;;;21.25;11.45;;;;;;;10.14;82.82;101367.16;5030760;28;20037;-48
2023/05/01 05:27:36;;;;;;;20.45;12.05;;;;;;;10.13;82.62;101375.75;5030707;28;20708;-44
2023/05/01 05:30:04;;;;;;;20.20;11.52;;;;;;;10.12;82.71;101385.97;5030889;28;20036;-48
2023/05/01 05:32:30;;;;;;;21.17;11.98;;;;;;;10.12;83.54;101379.63;5030611;28;20029;-47
2023/05/01 05:34:56;;;;;;;22.10;12.20;;;;;;;10.13;83.54;101371.03;5030580;28;20067;-47
2023/05/01 05:37:21;;;;;;;20.20;11.63;;;;;;;10.17;83.41;101371.28;5030728;28;20029;-45
2023/05/01 05:39:47;;;;;;;21.15;11.18;;;;;;;10.18;83.53;101370.16;5030606;28;20087;-47
2023/05/01 05:42:13;;;;;;;20.83;11.55;;;;;;;10.23;83.41;101372.91;5032605;28;20033;-46
2023/05/01 05:44:38;;;;;;;22.20;11.75;;;;;;;10.26;83.41;101363.19;5034231;28;20040;-46
2023/05/01 05:47:03;;;;;;;21.60;11.60;;;;;;;10.34;83.21;101368.09;5034200;28;20095;-46
2023/05/01 05:49:29;;;;;;;21.58;12.68;;;;;;;10.36;82.77;101365.84;5034184;28;20112;-46
2023/05/01 05:51:55;;;;;;;20.25;11.95;;;;;;;10.45;82.90;101372.44;5032560;28;20470;-46
2023/05/01 05:54:20;;;;;;;21.05;12.52;;;;;;;10.48;82.91;101370.22;5033926;28;20061;-45
2023/05/01 05:56:45;;;;;;;23.25;12.57;;;;;;;10.52;82.38;101363.78;5034000;28;20022;-46
2023/05/01 05:59:11;;;;;;;21.38;12.32;;;;;;;10.52;82.49;101361.03;5033878;28;20474;-46
2023/05/01 06:01:36;;;;;;;21.60;12.13;;;;;;;10.59;82.11;101357.88;5033687;28;20029;-46
2023/05/01 06:04:02;;;;;;;20.67;12.25;;;;;;;10.66;81.76;101361.16;5033910;28;20033;-47
2023/05/01 06:06:27;;;;;;;21.45;11.82;;;;;;;10.76;81.86;101352.72;5033866;28;20077;-47
2023/05/01 06:08:53;;;;;;;22.88;12.70;;;;;;;10.85;81.15;101347.34;5033663;28;20021;-47
2023/05/01 06:11:20;;;;;;;22.48;12.88;;;;;;;10.88;81.36;101357.00;5033545;28;20025;-46
2023/05/01 06:13:45;;;;;;;20.15;11.90;;;;;;;10.93;80.03;101354.19;5033644;28;20186;-46
2023/05/01 06:16:11;;;;;;;22.13;12.05;;;;;;;10.98;80.04;101356.88;5033496;28;20033;-48
2023/05/01 06:18:36;;;;;;;22.45;12.20;;;;;;;11.06;79.75;101355.41;5033584;28;20514;-49
2023/05/01 06:21:02;;;;;;;23.85;12.82;;;;;;;11.12;79.76;101356.16;5032049;28;20374;-49
2023/05/01 06:23:27;;;;;;;21.42;11.57;;;;;;;11.18;79.29;101352.19;5033300;28;20022;-47
2023/05/01 06:25:53;;;;;;;19.65;11.63;;;;;;;11.20;79.53;101352.72;5033341;28;20104;-47
2023/05/01 06:28:18;;;;;;;23.25;11.93;;;;;;;11.20;78.80;101359.06;5033256;28;20060;-49
2023/05/01 06:30:43;;;;;;;21.05;11.85;;;;;;;11.19;79.54;101359.38;5033350;28;20401;-46
2023/05/01 06:33:09;;;;;;;22.42;12.00;;;;;;;11.30;79.83;101357.28;5033290;28;20022;-45
2023/05/01 06:35:37;;;;;;;21.80;11.85;;;;;;;11.42;79.26;101357.69;5033132;28;20112;-46
2023/05/01 06:38:02;;;;;;;23.45;12.20;;;;;;;11.49;78.85;101349.00;5033185;28;20056;-44
2023/05/01 06:40:30;;;;;;;21.30;12.10;;;;;;;11.61;79.33;101354.06;5033203;28;20029;-44
2023/05/01 06:42:56;;;;;;;21.45;12.73;;;;;;;11.73;77.84;101354.44;5032942;28;20083;-45
2023/05/01 06:45:21;;;;;;;22.27;12.52;;;;;;;11.89;77.89;101351.41;5032968;28;20798;-46
2023/05/01 06:47:46;;;;;;;20.83;12.38;;;;;;;11.98;77.13;101357.94;5032810;28;20029;-46
2023/05/01 06:50:12;;;;;;;21.45;12.38;;;;;;;12.17;76.47;101350.41;5032644;28;20497;-44
2023/05/01 06:52:37;;;;;;;22.48;12.57;;;;;;;12.30;76.24;101356.28;5032661;28;20184;-45
2023/05/01 06:55:03;;;;;;;22.08;12.63;;;;;;;12.37;75.11;101358.66;5032853;28;20405;-45
2023/05/01 06:57:28;;;;;;;21.20;12.27;;;;;;;12.44;75.20;101348.78;5032764;28;20405;-48
2023/05/01 06:59:53;;;;;;;21.10;12.43;;;;;;;12.54;75.27;101355.28;5032646;28;20048;-45
2023/05/01 07:02:19;;;;;;;21.17;12.60;;;;;;;12.58;74.73;101351.59;5032674;28;20033;-45
2023/05/01 07:04:45;;;;;;;22.10;12.95;;;;;;;12.64;75.07;101347.59;5032672;28;20065;-46
2023/05/01 07:07:10;;;;;;;23.15;12.77;;;;;;;12.71;74.60;101354.69;5032632;28;20049;-49
2023/05/01 07:09:36;;;;;;;23.00;13.70;;;;;;;12.70;74.94;101355.81;5032533;28;20457;-46
2023/05/01 07:12:02;;;;;;;21.15;13.13;;;;;;;12.74;74.15;101351.28;5032560;28;20032;-46
2023/05/01 07:14:27;;;;;;;22.40;13.75;;;;;;;12.79;73.76;101351.19;5030992;28;20029;-44
2023/05/01 07:16:53;;;;;;;21.80;14.20;;;;;;;12.79;74.59;101351.19;5030996;28;20433;-46
2023/05/01 07:19:18;;;;;;;22.63;14.38;;;;;;;12.71;74.36;101343.56;5032264;28;20195;-46
2023/05/01 07:21:43;;;;;;;21.38;13.77;;;;;;;12.85;75.10;101347.16;5032193;28;20034;-46
2023/05/01 07:24:09;;;;;;;22.70;14.55;;;;;;;12.98;74.46;101347.47;5032058;28;20044;-45
2023/05/01 07:26:34;;;;;;;22.67;13.93;;;;;;;13.20;73.94;101342.00;5030863;28;20026;-46
2023/05/01 07:28:59;;;;;;;23.85;15.10;;;;;;;13.32;73.45;101348.97;5032245;28;20392;-46
2023/05/01 07:31:25;;;;;;;23.13;14.25;;;;;;;13.47;71.87;101348.63;5030625;28;20091;-46
2023/05/01 07:33:50;;;;;;;22.05;14.07;;;;;;;13.46;71.80;101348.97;5032332;28;20030;-44
2023/05/01 07:36:17;;;;;;;21.55;14.02;;;;;;;13.56;72.58;101345.91;5031853;28;20029;-46
2023/05/01 07:38:43;;;;;;;21.77;13.45;;;;;;;13.70;71.85;101343.91;5031891;28;20025;-46
2023/05/01 07:41:09;;;;;;;23.00;13.65;;;;;;;13.71;70.98;101350.28;5031990;28;20485;-48
2023/05/01 07:43:34;;;;;;;22.52;14.35;;;;;;;13.68;71.65;101346.19;5031918;28;20176;-46
2023/05/01 07:46:00;;;;;;;22.92;13.93;;;;;;;13.69;72.22;101347.03;5031707;28;20040;-45
2023/05/01 07:48:27;;;;;;;24.85;14.95;;;;;;;13.89;71.28;101346.50;5031804;28;20032;-46
2023/05/01 07:50:53;;;;;;;24.52;14.88;;;;;;;14.12;70.50;101342.91;5031671;28;20029;-44
2023/05/01 07:53:18;;;;;;;21.65;14.40;;;;;;;14.24;70.00;101342.31;5031747;28;20429;-47
2023/05/01 07:55:43;;;;;;;21.58;14.45;;;;;;;14.33;69.89;101343.16;5031690;28;20061;-47
2023/05/01 07:58:09;;;;;;;22.13;13.68;;;;;;;14.33;68.28;101340.38;5031570;28;20053;-45
2023/05/01 08:00:34;;;;;;;21.58;14.48;;;;;;;14.22;68.79;101339.81;5031495;28;20075;-45
2023/05/01 08:03:00;;;;;;;24.45;14.13;;;;;;;14.23;69.43;101341.47;5030228;28;20115;-48
2023/05/01 08:05:25;;;;;;;22.85;14.30;;;;;;;14.30;69.44;101347.41;5029634;28;20025;-47
2023/05/01 08:07:51;;;;;;;22.95;14.07;;;;;;;14.42;69.98;101348.75;5031582;28;20358;-48
2023/05/01 08:10:16;;;;;;;24.98;14.73;;;;;;;14.53;68.21;101344.56;5031569;28;20091;-44
2023/05/01 08:12:41;;;;;;;22.30;14.82;;;;;;;14.65;67.77;101347.56;5030104;28;20030;-45
2023/05/01 08:15:07;;;;;;;22.05;14.32;;;;;;;14.73;67.35;101351.56;5031507;28;20614;-45
2023/05/01 08:17:34;;;;;;;22.25;14.18;;;;;;;14.65;67.79;101346.72;5031388;28;20029;-44
2023/05/01 08:20:00;;;;;;;23.60;14.10;;;;;;;14.81;68.09;101350.78;5031365;28;20025;-45
2023/05/01 08:22:25;;;;;;;23.10;14.00;;;;;;;15.01;66.71;101340.19;5031285;28;20363;-45
2023/05/01 08:24:50;;;;;;;20.20;13.93;;;;;;;15.08;65.16;101343.28;5031365;28;20026;-46
2023/05/01 08:27:16;;;;;;;22.27;14.85;;;;;;;15.07;65.13;101340.81;5031303;28;20049;-45
2023/05/01 08:29:41;;;;;;;22.63;14.63;;;;;;;15.21;65.31;101343.50;5031440;28;20116;-46
2023/05/01 08:32:06;;;;;;;21.98;14.32;;;;;;;15.18;64.42;101335.78;5031325;28;20017;-47
2023/05/01 08:34:32;;;;;;;22.27;14.60;;;;;;;15.16;65.08;101336.06;5031203;28;20040;-46
2023/05/01 08:36:58;;;;;;;23.50;15.02;;;;;;;15.20;64.72;101334.28;5029988;28;20082;-46
2023/05/01 08:39:23;;;;;;;23.85;14.60;;;;;;;15.39;64.65;101331.22;5030129;28;20018;-47
2023/05/01 08:41:49;;;;;;;25.00;14.88;;;;;;;15.59;64.07;101328.88;5029830;28;20374;-47
2023/05/01 08:44:16;;;;;;;23.48;15.07;;;;;;;15.72;63.67;101330.69;5031319;28;20041;-46
2023/05/01 08:46:47;;;;;;;22.35;14.32;;;;;;;15.97;63.29;101327.41;5031269;28;20029;-46
2023/05/01 08:49:15;;;;;;;23.52;15.07;;;;;;;16.00;62.61;101335.94;5030048;28;20029;-48
2023/05/01 08:51:44;;;;;;;22.48;14.18;;;;;;;16.03;61.22;101326.91;5031210;28;20033;-44
2023/05/01 08:54:10;;;;;;;21.20;13.98;;;;;;;16.05;60.89;101330.19;5026904;28;20147;-45
2023/05/01 08:56:36;;;;;;;21.90;14.25;;;;;;;16.27;60.55;101331.09;5027914;28;20484;-45
2023/05/01 08:59:04;;;;;;;23.45;13.75;;;;;;;16.40;59.66;101331.22;5045967;28;20036;-45
2023/05/01 09:01:31;;;;;;;21.83;13.63;;;;;;;16.38;58.72;101326.00;5053086;28;20053;-45
2023/05/01 09:03:57;;;;;;;22.05;13.55;;;;;;;16.52;58.71;101325.78;5066153;28;20062;-49
2023/05/01 09:06:27;;;;;;;22.25;13.85;;;;;;;16.50;59.33;101326.09;5054973;28;20476;-46
2023/05/01 09:08:52;;;;;;;22.10;13.38;;;;;;;16.51;59.52;101322.16;5061728;28;20023;-48
2023/05/01 09:11:18;;;;;;;21.90;13.90;;;;;;;16.57;58.48;101333.16;5062906;28;20408;-50
2023/05/01 09:13:45;;;;;;;23.35;14.65;;;;;;;16.49;60.00;101335.63;5055929;28;20044;-48
2023/05/01 09:16:11;;;;;;;22.20;13.98;;;;;;;16.21;59.51;101329.66;5063889;28;20462;-47
2023/05/01 09:18:37;;;;;;;21.27;13.50;;;;;;;16.38;59.98;101331.56;5074989;28;20070;-46
2023/05/01 09:21:02;;;;;;;22.25;13.43;;;;;;;16.63;59.61;101329.81;5065393;28;20021;-45
2023/05/01 09:23:28;;;;;;;22.25;13.63;;;;;;;16.64;58.20;101336.22;5067938;28;20050;-47
2023/05/01 09:25:54;;;;;;;20.52;13.90;;;;;;;16.55;59.27;101330.66;5055000;28;20040;-49
2023/05/01 09:28:44;;;;;;;21.73;13.77;;;;;;;16.69;59.98;101336.84;5068890;28;20056;-46
2023/05/01 09:31:31;;;;;;;23.25;13.60;;;;;;;16.74;59.35;101338.66;5074426;28;20074;-45
2023/05/01 09:34:00;;;;;;;20.55;13.20;;;;;;;16.66;59.29;101333.94;5074564;28;20388;-47
2023/05/01 09:36:28;;;;;;;23.40;14.73;;;;;;;16.79;59.90;101330.06;5060784;28;20071;-48
2023/05/01 09:38:54;;;;;;;20.48;13.35;;;;;;;16.84;58.16;101332.69;5066280;28;20033;-46
2023/05/01 09:41:20;;;;;;;23.30;14.18;;;;;;;17.04;58.08;101338.69;5066563;28;20397;-46
2023/05/01 09:43:53;;;;;;;24.50;14.75;;;;;;;17.07;57.58;101335.19;5064359;28;20063;-46
2023/05/01 09:46:20;;;;;;;22.38;14.25;;;;;;;17.06;57.39;101336.34;5059830;28;20036;-46
2023/05/01 09:49:02;;;;;;;21.80;13.77;;;;;;;17.12;57.89;101334.16;5069354;28;20024;-48
2023/05/01 09:51:31;;;;;;;22.60;14.57;;;;;;;17.28;56.78;101335.22;5054118;28;20067;-45
2023/05/01 09:54:01;;;;;;;23.35;16.00;;;;;;;17.40;56.53;101325.25;5069904;28;20040;-48
2023/05/01 09:56:30;;;;;;;22.70;14.15;;;;;;;17.62;56.27;101335.25;5063114;28;20074;-46
2023/05/01 09:58:57;;;;;;;21.85;13.73;;;;;;;17.84;55.92;101331.28;5062198;28;20017;-45
2023/05/01 10:01:42;;;;;;;22.52;14.30;;;;;;;18.11;55.08;101329.06;5055321;28;20025;-48
2023/05/01 10:04:11;;;;;;;22.50;14.57;;;;;;;18.32;53.86;101328.19;5045681;28;20069;-45
2023/05/01 10:06:37;;;;;;;21.73;14.57;;;;;;;18.36;53.25;101331.91;5057715;28;20043;-46
2023/05/01 10:09:03;;;;;;;23.38;14.00;;;;;;;18.39;52.62;101331.22;5055645;28;20033;-47
2023/05/01 10:11:50;;;;;;;22.42;14.05;;;;;;;18.76;54.21;101325.63;5064202;28;20031;-46
2023/05/01 10:14:16;;;;;;;22.60;14.10;;;;;;;18.62;51.64;101330.75;5072934;28;20549;-45
2023/05/01 10:16:42;;;;;;;22.52;14.88;;;;;;;18.84;51.45;101323.88;5057459;28;20017;-46
2023/05/01 10:19:08;;;;;;;23.42;14.40;;;;;;;19.17;51.64;101329.38;5066806;28;20362;-45
2023/05/01 10:21:34;;;;;;;23.05;14.27;;;;;;;19.52;50.80;101325.16;5062052;28;20044;-46
2023/05/01 10:24:04;;;;;;;21.45;13.23;;;;;;;19.56;48.87;101331.72;5069366;28;20032;-44
2023/05/01 10:26:33;;;;;;;21.65;14.57;;;;;;;19.35;49.52;101329.09;5056866;28;20070;-47
2023/05/01 10:29:00;;;;;;;21.63;13.95;;;;;;;19.39;49.86;101332.81;5066073;28;20503;-48
2023/05/01 10:31:26;;;;;;;22.42;14.32;;;;;;;19.22;49.91;101333.91;5062955;28;20028;-45
2023/05/01 10:33:52;;;;;;;23.23;14.20;;;;;;;19.29;50.80;101334.13;5059222;28;20029;-45
2023/05/01 10:36:25;;;;;;;21.42;13.65;;;;;;;19.22;50.77;101335.88;5069841;28;20412;-45
2023/05/01 10:38:50;;;;;;;22.40;14.57;;;;;;;19.32;50.65;101332.59;5055944;28;20048;-46
2023/05/01 10:41:16;;;;;;;22.13;14.07;;;;;;;19.44;50.14;101335.38;5063899;28;20574;-45
2023/05/01 10:43:42;;;;;;;21.02;13.57;;;;;;;19.58;50.57;101328.53;5060233;28;20113;-43
2023/05/01 10:46:14;;;;;;;20.65;13.68;;;;;;;19.18;50.02;101330.97;5053091;28;20060;-50
2023/05/01 10:48:39;;;;;;;21.35;14.15;;;;;;;19.16;50.21;101335.31;5068341;28;20032;-52
2023/05/01 10:51:16;;;;;;;21.38;13.55;;;;;;;19.27;50.41;101330.84;5054611;28;20029;-49
2023/05/01 10:53:45;;;;;;;21.80;14.02;;;;;;;19.57;49.96;101326.91;5060170;28;20029;-50
2023/05/01 10:56:24;;;;;;;20.80;13.63;;;;;;;19.37;50.70;101328.72;5055288;28;20055;-52
2023/05/01 10:58:52;;;;;;;21.27;14.07;;;;;;;19.16;50.44;101322.13;5041439;28;20060;-50
2023/05/01 11:01:30;;;;;;;22.77;14.38;;;;;;;19.21;51.71;101323.88;5072884;28;20043;-54
2023/05/01 11:04:03;;;;;;;23.45;14.65;;;;;;;18.94;50.67;101325.41;5048591;28;20489;-52
2023/05/01 11:06:29;;;;;;;23.30;14.05;;;;;;;18.86;53.38;101327.97;5070666;28;20056;-51
2023/05/01 11:08:55;;;;;;;21.58;14.02;;;;;;;18.86;53.00;101324.34;5072452;28;20035;-49
2023/05/01 11:11:21;;;;;;;22.63;15.20;;;;;;;18.66;53.18;101331.72;5072358;28;20028;-51